Singapore Payalebar, Singapore

5:27 PM SGT on April 01, 2015 (GMT +0800)
Paya Lebar | | Change Station
CLOSE
Current Station
Airport
Location: Singapore Payalebar,
Elevation: 62 ft
Nearby Weather Stations

Elev 62 ft 1.36 °N, 103.91 °E | Updated 27 minutes ago

Mostly Cloudy
Mostly Cloudy
82 °F
Feels Like 90 °F
N
6
Wind Variable Wind from South

Today
High -- | Low -- °F
--% Chance of Precip.
Yesterday
High -- | Low -- °F
Precip. -- in
7:04 AM 7:12 PM
Waxing Gibbous, 91% visible
Pressure 29.74 in
Visibility 6.2 miles
Clouds Few 1600 ft
Few 1800 ft
Few 2000 ft
Mostly Cloudy 26000 ft
Heat Index 90 °F
Dew Point 75 °F
Humidity 79%
Rainfall 0.00 in
Snow Depth Not available.
UV 2 out of 12
Pollen Not available.
Air Quality Not available.
Flu Activity Not available.
METAR WSAP 010900Z 18005KT 9999 FEW016 FEW018TCU FEW020CB BKN260 28/24 Q1007 RETS

More Conditions Fewer Conditions

Pressure 29.74 in
Visibility 6.2 miles
Clouds Few 1600 ft
Few 1800 ft
Few 2000 ft
Mostly Cloudy 26000 ft
Heat Index 90 °F
Dew Point 75 °F
Humidity 79%
Rainfall 0.00 in
Snow Depth Not available.
UV 2 out of 12
Pollen Not available.
Air Quality Not available.
Flu Activity Not available.
METAR WSAP 010900Z 18005KT 9999 FEW016 FEW018TCU FEW020CB BKN260 28/24 Q1007 RETS

More Conditions Fewer Conditions

10-Day Weather Forecast

Almanac

Astronomy

Apr. 01, 2015 Rise Set
Actual Time
Civil Twilight
Nautical Twilight
Astronomical Twilight
Moon
Length of Visible Light
Length of Day
Tomorrow will be .
, % of the Moon is Illuminated

Today's Extremes

Country Highs Country Lows

Community

WunderPhotos

Upload Photos

1,809,933 photos uploaded!

WunderBlogs® & News

Nearby

Air Quality

  Air Quality AQ Index Pollutant
Not available.

Snow Depth

Station Depth Elevation

Earthquake Activity

City Distance Mag. Time & Date
Minimum magnitude displayed is 2.5.

Coastal Water Temperatures

Place Temperature

Stations

Nearby Weather Stations

Station Location Temp. Windchill Dew Point Humidity Wind Precip. Elev Updated Type